sensor_id;sensor_type;location;lat;lon;timestamp;pressure;altitude;pressure_sealevel;temperature;humidity
54600;BME280;40500;51.084;16.958;2023-02-18T00:02:21;100061.20;;;8.11;100.00
54600;BME280;40500;51.084;16.958;2023-02-18T00:04:54;100061.00;;;8.13;100.00
54600;BME280;40500;51.084;16.958;2023-02-18T00:07:25;100062.98;;;8.08;100.00
54600;BME280;40500;51.084;16.958;2023-02-18T00:09:55;100071.54;;;8.06;100.00
54600;BME280;40500;51.084;16.958;2023-02-18T00:12:25;100074.12;;;8.10;100.00
54600;BME280;40500;51.084;16.958;2023-02-18T00:14:56;100071.52;;;8.07;100.00
54600;BME280;40500;51.084;16.958;2023-02-18T00:17:27;100072.09;;;8.05;100.00
54600;BME280;40500;51.084;16.958;2023-02-18T00:20:00;100072.80;;;8.04;100.00
54600;BME280;40500;51.084;16.958;2023-02-18T00:22:30;100070.92;;;7.99;100.00
54600;BME280;40500;51.084;16.958;2023-02-18T00:25:01;100075.16;;;7.94;100.00
54600;BME280;40500;51.084;16.958;2023-02-18T00:27:31;100083.91;;;7.91;100.00
54600;BME280;40500;51.084;16.958;2023-02-18T00:30:06;100089.33;;;7.89;100.00
54600;BME280;40500;51.084;16.958;2023-02-18T00:32:37;100084.33;;;7.85;100.00
54600;BME280;40500;51.084;16.958;2023-02-18T00:35:08;100087.15;;;7.81;100.00
54600;BME280;40500;51.084;16.958;2023-02-18T00:37:39;100084.71;;;7.81;100.00
54600;BME280;40500;51.084;16.958;2023-02-18T00:40:10;100087.70;;;7.77;100.00
54600;BME280;40500;51.084;16.958;2023-02-18T00:42:41;100086.68;;;7.74;100.00
54600;BME280;40500;51.084;16.958;2023-02-18T00:45:13;100085.83;;;7.72;100.00
54600;BME280;40500;51.084;16.958;2023-02-18T00:47:43;100087.09;;;7.69;100.00
54600;BME280;40500;51.084;16.958;2023-02-18T00:50:14;100087.65;;;7.64;100.00
54600;BME280;40500;51.084;16.958;2023-02-18T00:52:44;100094.82;;;7.63;100.00
54600;BME280;40500;51.084;16.958;2023-02-18T00:55:15;100096.02;;;7.64;100.00
54600;BME280;40500;51.084;16.958;2023-02-18T00:57:47;100096.20;;;7.63;100.00
54600;BME280;40500;51.084;16.958;2023-02-18T01:00:18;100102.51;;;7.60;100.00
54600;BME280;40500;51.084;16.958;2023-02-18T01:02:48;100094.66;;;7.59;100.00
54600;BME280;40500;51.084;16.958;2023-02-18T01:05:23;100101.11;;;7.59;100.00
54600;BME280;40500;51.084;16.958;2023-02-18T01:07:54;100101.13;;;7.58;100.00
54600;BME280;40500;51.084;16.958;2023-02-18T01:10:24;100101.50;;;7.56;100.00
54600;BME280;40500;51.084;16.958;2023-02-18T01:12:55;100101.33;;;7.54;100.00
54600;BME280;40500;51.084;16.958;2023-02-18T01:15:27;100107.95;;;7.55;100.00
54600;BME280;40500;51.084;16.958;2023-02-18T01:17:58;100103.77;;;7.54;100.00
54600;BME280;40500;51.084;16.958;2023-02-18T01:20:30;100112.17;;;7.50;100.00
54600;BME280;40500;51.084;16.958;2023-02-18T01:23:02;100114.65;;;7.45;100.00
54600;BME280;40500;51.084;16.958;2023-02-18T01:25:33;100113.63;;;7.42;100.00
54600;BME280;40500;51.084;16.958;2023-02-18T01:28:05;100112.25;;;7.38;100.00
54600;BME280;40500;51.084;16.958;2023-02-18T01:30:36;100110.02;;;7.31;100.00
54600;BME280;40500;51.084;16.958;2023-02-18T01:33:07;100106.78;;;7.26;100.00
54600;BME280;40500;51.084;16.958;2023-02-18T01:35:40;100109.08;;;7.21;100.00
54600;BME280;40500;51.084;16.958;2023-02-18T01:38:10;100101.94;;;7.20;100.00
54600;BME280;40500;51.084;16.958;2023-02-18T01:40:47;100109.23;;;7.21;100.00
54600;BME280;40500;51.084;16.958;2023-02-18T01:43:20;100106.13;;;7.20;100.00
54600;BME280;40500;51.084;16.958;2023-02-18T01:45:58;100103.37;;;7.16;100.00
54600;BME280;40500;51.084;16.958;2023-02-18T01:48:31;100106.18;;;7.09;100.00
54600;BME280;40500;51.084;16.958;2023-02-18T01:51:07;100115.63;;;7.03;100.00
54600;BME280;40500;51.084;16.958;2023-02-18T01:53:43;100116.55;;;6.97;100.00
54600;BME280;40500;51.084;16.958;2023-02-18T01:56:22;100123.19;;;6.90;100.00
54600;BME280;40500;51.084;16.958;2023-02-18T01:58:56;100119.75;;;6.84;100.00
54600;BME280;40500;51.084;16.958;2023-02-18T02:01:28;100126.91;;;6.76;100.00
54600;BME280;40500;51.084;16.958;2023-02-18T02:04:00;100126.77;;;6.69;100.00
54600;BME280;40500;51.084;16.958;2023-02-18T02:06:30;100119.33;;;6.63;100.00
54600;BME280;40500;51.084;16.958;2023-02-18T02:09:03;100120.73;;;6.56;100.00
54600;BME280;40500;51.084;16.958;2023-02-18T02:11:45;100122.52;;;6.50;100.00
54600;BME280;40500;51.084;16.958;2023-02-18T02:14:31;100128.43;;;6.45;100.00
54600;BME280;40500;51.084;16.958;2023-02-18T02:17:10;100125.67;;;6.41;100.00
54600;BME280;40500;51.084;16.958;2023-02-18T02:26:24;100131.40;;;6.41;100.00
54600;BME280;40500;51.084;16.958;2023-02-18T02:29:20;100135.40;;;6.45;100.00
54600;BME280;40500;51.084;16.958;2023-02-18T02:32:14;100137.48;;;6.49;100.00
54600;BME280;40500;51.084;16.958;2023-02-18T02:34:53;100143.20;;;6.51;100.00
54600;BME280;40500;51.084;16.958;2023-02-18T02:37:33;100134.35;;;6.48;100.00
54600;BME280;40500;51.084;16.958;2023-02-18T02:40:17;100139.22;;;6.44;100.00
54600;BME280;40500;51.084;16.958;2023-02-18T02:43:01;100131.41;;;6.43;100.00
54600;BME280;40500;51.084;16.958;2023-02-18T02:45:46;100130.02;;;6.43;100.00
54600;BME280;40500;51.084;16.958;2023-02-18T02:48:27;100132.11;;;6.41;100.00
54600;BME280;40500;51.084;16.958;2023-02-18T02:51:05;100130.02;;;6.41;100.00
54600;BME280;40500;51.084;16.958;2023-02-18T02:53:41;100126.89;;;6.40;100.00
54600;BME280;40500;51.084;16.958;2023-02-18T02:56:15;100136.45;;;6.40;100.00
54600;BME280;40500;51.084;16.958;2023-02-18T02:58:49;100138.55;;;6.35;100.00
54600;BME280;40500;51.084;16.958;2023-02-18T03:01:39;100141.17;;;6.31;100.00
54600;BME280;40500;51.084;16.958;2023-02-18T03:04:29;100143.96;;;6.29;100.00
54600;BME280;40500;51.084;16.958;2023-02-18T03:07:21;100144.15;;;6.26;100.00
54600;BME280;40500;51.084;16.958;2023-02-18T03:10:07;100146.58;;;6.23;100.00
54600;BME280;40500;51.084;16.958;2023-02-18T03:12:48;100149.37;;;6.20;100.00
54600;BME280;40500;51.084;16.958;2023-02-18T03:15:25;100148.17;;;6.14;100.00
54600;BME280;40500;51.084;16.958;2023-02-18T03:18:03;100149.92;;;6.08;100.00
54600;BME280;40500;51.084;16.958;2023-02-18T03:20:40;100158.45;;;6.01;100.00
54600;BME280;40500;51.084;16.958;2023-02-18T03:23:15;100154.60;;;5.95;100.00
54600;BME280;40500;51.084;16.958;2023-02-18T03:25:48;100152.17;;;5.94;100.00
54600;BME280;40500;51.084;16.958;2023-02-18T03:28:22;100155.84;;;5.96;100.00
54600;BME280;40500;51.084;16.958;2023-02-18T03:30:57;100156.70;;;6.00;100.00
54600;BME280;40500;51.084;16.958;2023-02-18T03:33:31;100160.52;;;5.96;100.00
54600;BME280;40500;51.084;16.958;2023-02-18T03:36:05;100171.81;;;5.92;100.00
54600;BME280;40500;51.084;16.958;2023-02-18T03:38:41;100175.45;;;5.88;100.00
54600;BME280;40500;51.084;16.958;2023-02-18T03:41:13;100178.94;;;5.84;100.00
54600;BME280;40500;51.084;16.958;2023-02-18T03:43:50;100178.77;;;5.79;100.00
54600;BME280;40500;51.084;16.958;2023-02-18T03:46:22;100181.73;;;5.75;100.00
54600;BME280;40500;51.084;16.958;2023-02-18T03:48:55;100184.15;;;5.68;100.00
54600;BME280;40500;51.084;16.958;2023-02-18T03:51:26;100183.63;;;5.66;100.00
54600;BME280;40500;51.084;16.958;2023-02-18T03:53:56;100187.45;;;5.69;100.00
54600;BME280;40500;51.084;16.958;2023-02-18T03:56:27;100191.95;;;5.68;100.00
54600;BME280;40500;51.084;16.958;2023-02-18T03:58:57;100186.23;;;5.70;100.00
54600;BME280;40500;51.084;16.958;2023-02-18T04:01:29;100191.27;;;5.68;100.00
54600;BME280;40500;51.084;16.958;2023-02-18T04:03:59;100195.44;;;5.63;100.00
54600;BME280;40500;51.084;16.958;2023-02-18T04:06:31;100202.38;;;5.58;100.00
54600;BME280;40500;51.084;16.958;2023-02-18T04:09:01;100200.81;;;5.53;100.00
54600;BME280;40500;51.084;16.958;2023-02-18T04:11:38;100207.58;;;5.54;100.00
54600;BME280;40500;51.084;16.958;2023-02-18T04:14:09;100205.15;;;5.57;100.00
54600;BME280;40500;51.084;16.958;2023-02-18T04:16:42;100200.45;;;5.53;100.00
54600;BME280;40500;51.084;16.958;2023-02-18T04:19:13;100208.45;;;5.50;100.00
54600;BME280;40500;51.084;16.958;2023-02-18T04:21:43;100203.23;;;5.48;100.00
54600;BME280;40500;51.084;16.958;2023-02-18T04:24:13;100208.61;;;5.48;100.00
54600;BME280;40500;51.084;16.958;2023-02-18T04:26:44;100201.84;;;5.52;100.00
54600;BME280;40500;51.084;16.958;2023-02-18T04:29:15;100206.89;;;5.57;100.00
54600;BME280;40500;51.084;16.958;2023-02-18T04:31:46;100200.81;;;5.59;100.00
54600;BME280;40500;51.084;16.958;2023-02-18T04:34:16;100204.30;;;5.61;100.00
54600;BME280;40500;51.084;16.958;2023-02-18T04:36:47;100202.55;;;5.62;100.00
54600;BME280;40500;51.084;16.958;2023-02-18T04:39:20;100199.44;;;5.65;100.00
54600;BME280;40500;51.084;16.958;2023-02-18T04:41:50;100206.20;;;5.66;100.00
54600;BME280;40500;51.084;16.958;2023-02-18T04:44:21;100196.65;;;5.66;100.00
54600;BME280;40500;51.084;16.958;2023-02-18T04:46:51;100205.69;;;5.70;100.00
54600;BME280;40500;51.084;16.958;2023-02-18T04:49:21;100199.44;;;5.71;100.00
54600;BME280;40500;51.084;16.958;2023-02-18T04:51:54;100194.57;;;5.74;100.00
54600;BME280;40500;51.084;16.958;2023-02-18T04:54:25;100193.35;;;5.75;100.00
54600;BME280;40500;51.084;16.958;2023-02-18T04:56:55;100194.91;;;5.78;100.00
54600;BME280;40500;51.084;16.958;2023-02-18T04:59:26;100195.09;;;5.80;100.00
54600;BME280;40500;51.084;16.958;2023-02-18T05:01:57;100192.33;;;5.81;100.00
54600;BME280;40500;51.084;16.958;2023-02-18T05:04:27;100183.11;;;5.83;100.00
54600;BME280;40500;51.084;16.958;2023-02-18T05:06:58;100185.20;;;5.84;100.00
54600;BME280;40500;51.084;16.958;2023-02-18T05:09:29;100186.92;;;5.85;100.00
54600;BME280;40500;51.084;16.958;2023-02-18T05:11:59;100193.01;;;5.85;100.00
54600;BME280;40500;51.084;16.958;2023-02-18T05:14:30;100191.27;;;5.85;100.00
54600;BME280;40500;51.084;16.958;2023-02-18T05:17:01;100191.62;;;5.85;100.00
54600;BME280;40500;51.084;16.958;2023-02-18T05:19:31;100192.14;;;5.86;100.00
54600;BME280;40500;51.084;16.958;2023-02-18T05:22:02;100187.98;;;5.86;100.00
54600;BME280;40500;51.084;16.958;2023-02-18T05:24:32;100194.40;;;5.85;100.00
54600;BME280;40500;51.084;16.958;2023-02-18T05:27:03;100199.61;;;5.84;100.00
54600;BME280;40500;51.084;16.958;2023-02-18T05:29:35;100197.54;;;5.84;100.00
54600;BME280;40500;51.084;16.958;2023-02-18T05:32:07;100205.70;;;5.90;100.00
54600;BME280;40500;51.084;16.958;2023-02-18T05:34:37;100202.05;;;5.92;100.00
54600;BME280;40500;51.084;16.958;2023-02-18T05:37:08;100203.61;;;5.93;100.00
54600;BME280;40500;51.084;16.958;2023-02-18T05:39:39;100211.09;;;5.93;100.00
54600;BME280;40500;51.084;16.958;2023-02-18T05:42:09;100212.85;;;5.96;100.00
54600;BME280;40500;51.084;16.958;2023-02-18T05:44:40;100215.27;;;5.98;100.00
54600;BME280;40500;51.084;16.958;2023-02-18T05:47:12;100209.20;;;5.98;100.00
54600;BME280;40500;51.084;16.958;2023-02-18T05:49:43;100213.02;;;6.01;100.00
54600;BME280;40500;51.084;16.958;2023-02-18T05:52:13;100219.98;;;6.02;100.00
54600;BME280;40500;51.084;16.958;2023-02-18T05:54:46;100218.07;;;6.04;100.00
54600;BME280;40500;51.084;16.958;2023-02-18T05:57:16;100222.23;;;6.06;100.00
54600;BME280;40500;51.084;16.958;2023-02-18T05:59:47;100219.11;;;6.09;100.00
54600;BME280;40500;51.084;16.958;2023-02-18T06:02:19;100213.55;;;6.09;100.00
54600;BME280;40500;51.084;16.958;2023-02-18T06:04:52;100221.02;;;6.10;100.00
54600;BME280;40500;51.084;16.958;2023-02-18T06:07:23;100223.80;;;6.13;100.00
54600;BME280;40500;51.084;16.958;2023-02-18T06:09:53;100229.02;;;6.13;100.00
54600;BME280;40500;51.084;16.958;2023-02-18T06:12:24;100229.20;;;6.14;100.00
54600;BME280;40500;51.084;16.958;2023-02-18T06:14:54;100234.05;;;6.19;100.00
54600;BME280;40500;51.084;16.958;2023-02-18T06:17:25;100244.84;;;6.20;100.00
54600;BME280;40500;51.084;16.958;2023-02-18T06:19:55;100240.66;;;6.22;100.00
54600;BME280;40500;51.084;16.958;2023-02-18T06:22:26;100242.39;;;6.23;100.00
54600;BME280;40500;51.084;16.958;2023-02-18T06:24:56;100237.88;;;6.24;100.00
54600;BME280;40500;51.084;16.958;2023-02-18T06:27:27;100238.05;;;6.26;100.00
54600;BME280;40500;51.084;16.958;2023-02-18T06:29:58;100236.30;;;6.28;100.00
54600;BME280;40500;51.084;16.958;2023-02-18T06:32:32;100234.58;;;6.31;100.00
54600;BME280;40500;51.084;16.958;2023-02-18T06:35:02;100233.17;;;6.32;100.00
54600;BME280;40500;51.084;16.958;2023-02-18T06:37:33;100233.86;;;6.33;100.00
54600;BME280;40500;51.084;16.958;2023-02-18T06:40:05;100239.77;;;6.34;100.00
54600;BME280;40500;51.084;16.958;2023-02-18T06:42:36;100239.77;;;6.34;100.00
54600;BME280;40500;51.084;16.958;2023-02-18T06:45:07;100244.12;;;6.34;100.00
54600;BME280;40500;51.084;16.958;2023-02-18T06:47:39;100251.77;;;6.34;100.00
54600;BME280;40500;51.084;16.958;2023-02-18T06:50:10;100247.94;;;6.37;100.00
54600;BME280;40500;51.084;16.958;2023-02-18T06:52:41;100248.82;;;6.36;100.00
54600;BME280;40500;51.084;16.958;2023-02-18T06:55:14;100246.56;;;6.36;100.00
54600;BME280;40500;51.084;16.958;2023-02-18T06:57:44;100249.52;;;6.36;100.00
54600;BME280;40500;51.084;16.958;2023-02-18T07:00:16;100250.21;;;6.37;100.00
54600;BME280;40500;51.084;16.958;2023-02-18T07:02:49;100253.33;;;6.37;100.00
54600;BME280;40500;51.084;16.958;2023-02-18T07:05:19;100245.17;;;6.37;100.00
54600;BME280;40500;51.084;16.958;2023-02-18T07:07:50;100253.86;;;6.39;100.00
54600;BME280;40500;51.084;16.958;2023-02-18T07:10:20;100257.69;;;6.40;100.00
54600;BME280;40500;51.084;16.958;2023-02-18T07:12:52;100258.20;;;6.40;100.00
54600;BME280;40500;51.084;16.958;2023-02-18T07:15:22;100250.20;;;6.40;100.00
54600;BME280;40500;51.084;16.958;2023-02-18T07:17:56;100259.41;;;6.43;100.00
54600;BME280;40500;51.084;16.958;2023-02-18T07:20:28;100255.23;;;6.44;100.00
54600;BME280;40500;51.084;16.958;2023-02-18T07:23:00;100253.33;;;6.44;100.00
54600;BME280;40500;51.084;16.958;2023-02-18T07:25:30;100252.80;;;6.44;100.00
54600;BME280;40500;51.084;16.958;2023-02-18T07:28:01;100258.02;;;6.44;100.00
54600;BME280;40500;51.084;16.958;2023-02-18T07:30:32;100258.19;;;6.46;100.00
54600;BME280;40500;51.084;16.958;2023-02-18T07:33:03;100263.92;;;6.47;100.00
54600;BME280;40500;51.084;16.958;2023-02-18T07:35:36;100262.55;;;6.49;100.00
54600;BME280;40500;51.084;16.958;2023-02-18T07:38:07;100260.46;;;6.51;100.00
54600;BME280;40500;51.084;16.958;2023-02-18T07:40:38;100265.66;;;6.54;100.00
54600;BME280;40500;51.084;16.958;2023-02-18T07:43:10;100260.08;;;6.58;100.00
54600;BME280;40500;51.084;16.958;2023-02-18T07:45:41;100257.47;;;6.62;100.00
54600;BME280;40500;51.084;16.958;2023-02-18T07:48:12;100253.63;;;6.65;100.00
54600;BME280;40500;51.084;16.958;2023-02-18T07:50:44;100257.98;;;6.69;100.00
54600;BME280;40500;51.084;16.958;2023-02-18T07:53:16;100265.10;;;6.73;100.00
54600;BME280;40500;51.084;16.958;2023-02-18T07:55:47;100264.91;;;6.77;100.00
54600;BME280;40500;51.084;16.958;2023-02-18T07:58:24;100259.17;;;6.79;100.00
54600;BME280;40500;51.084;16.958;2023-02-18T08:00:56;100256.55;;;6.82;100.00
54600;BME280;40500;51.084;16.958;2023-02-18T08:03:28;100260.02;;;6.85;100.00
54600;BME280;40500;51.084;16.958;2023-02-18T08:06:03;100263.48;;;6.86;100.00
54600;BME280;40500;51.084;16.958;2023-02-18T08:08:34;100258.27;;;6.86;100.00
54600;BME280;40500;51.084;16.958;2023-02-18T08:11:05;100257.21;;;6.88;100.00
54600;BME280;40500;51.084;16.958;2023-02-18T08:13:47;100257.58;;;6.90;100.00
54600;BME280;40500;51.084;16.958;2023-02-18T08:16:20;100263.84;;;6.92;100.00
54600;BME280;40500;51.084;16.958;2023-02-18T08:18:51;100270.08;;;6.96;100.00
54600;BME280;40500;51.084;16.958;2023-02-18T08:21:24;100272.67;;;6.99;100.00
54600;BME280;40500;51.084;16.958;2023-02-18T08:23:56;100272.84;;;7.03;100.00
54600;BME280;40500;51.084;16.958;2023-02-18T08:26:27;100268.29;;;7.08;100.00
54600;BME280;40500;51.084;16.958;2023-02-18T08:28:57;100270.89;;;7.15;100.00
54600;BME280;40500;51.084;16.958;2023-02-18T08:31:29;100267.20;;;7.21;100.00
54600;BME280;40500;51.084;16.958;2023-02-18T08:34:00;100266.48;;;7.25;100.00
54600;BME280;40500;51.084;16.958;2023-02-18T08:36:31;100259.66;;;7.33;100.00
54600;BME280;40500;51.084;16.958;2023-02-18T08:39:02;100254.40;;;7.39;100.00
54600;BME280;40500;51.084;16.958;2023-02-18T08:41:32;100252.99;;;7.43;100.00
54600;BME280;40500;51.084;16.958;2023-02-18T08:44:03;100250.18;;;7.47;100.00
54600;BME280;40500;51.084;16.958;2023-02-18T08:46:33;100251.02;;;7.50;100.00
54600;BME280;40500;51.084;16.958;2023-02-18T08:49:05;100259.71;;;7.52;100.00
54600;BME280;40500;51.084;16.958;2023-02-18T08:51:36;100259.73;;;7.52;100.00
54600;BME280;40500;51.084;16.958;2023-02-18T08:54:06;100257.83;;;7.51;100.00
54600;BME280;40500;51.084;16.958;2023-02-18T08:56:36;100260.93;;;7.52;100.00
54600;BME280;40500;51.084;16.958;2023-02-18T08:59:07;100263.02;;;7.51;100.00
54600;BME280;40500;51.084;16.958;2023-02-18T09:01:38;100265.48;;;7.50;100.00
54600;BME280;40500;51.084;16.958;2023-02-18T09:04:08;100270.39;;;7.47;100.00
54600;BME280;40500;51.084;16.958;2023-02-18T09:06:39;100264.48;;;7.44;100.00
54600;BME280;40500;51.084;16.958;2023-02-18T09:09:12;100263.96;;;7.42;100.00
54600;BME280;40500;51.084;16.958;2023-02-18T09:11:43;100258.73;;;7.42;100.00
54600;BME280;40500;51.084;16.958;2023-02-18T09:14:16;100250.36;;;7.43;100.00
54600;BME280;40500;51.084;16.958;2023-02-18T09:16:47;100245.33;;;7.45;100.00
54600;BME280;40500;51.084;16.958;2023-02-18T09:19:19;100242.14;;;7.49;100.00
54600;BME280;40500;51.084;16.958;2023-02-18T09:21:49;100239.86;;;7.53;100.00
54600;BME280;40500;51.084;16.958;2023-02-18T09:24:21;100242.63;;;7.58;100.00
54600;BME280;40500;51.084;16.958;2023-02-18T09:26:53;100238.59;;;7.61;100.00
54600;BME280;40500;51.084;16.958;2023-02-18T09:29:25;100242.23;;;7.65;100.00
54600;BME280;40500;51.084;16.958;2023-02-18T09:31:56;100240.30;;;7.64;100.00
54600;BME280;40500;51.084;16.958;2023-02-18T09:34:29;100244.34;;;7.62;100.00
54600;BME280;40500;51.084;16.958;2023-02-18T09:36:59;100246.25;;;7.63;100.00
54600;BME280;40500;51.084;16.958;2023-02-18T09:39:30;100244.29;;;7.69;100.00
54600;BME280;40500;51.084;16.958;2023-02-18T09:42:02;100243.90;;;7.74;100.00
54600;BME280;40500;51.084;16.958;2023-02-18T09:44:35;100240.75;;;7.78;100.00
54600;BME280;40500;51.084;16.958;2023-02-18T09:47:12;100236.00;;;7.82;100.00
54600;BME280;40500;51.084;16.958;2023-02-18T09:49:46;100240.00;;;7.86;100.00
54600;BME280;40500;51.084;16.958;2023-02-18T09:52:21;100235.63;;;7.86;100.00
54600;BME280;40500;51.084;16.958;2023-02-18T09:54:52;100230.22;;;7.85;100.00
54600;BME280;40500;51.084;16.958;2023-02-18T09:57:26;100230.56;;;7.88;100.00
54600;BME280;40500;51.084;16.958;2023-02-18T10:00:02;100225.49;;;7.88;100.00
54600;BME280;40500;51.084;16.958;2023-02-18T10:02:39;100229.37;;;7.82;100.00
54600;BME280;40500;51.084;16.958;2023-02-18T10:05:12;100229.23;;;7.79;100.00
54600;BME280;40500;51.084;16.958;2023-02-18T10:07:46;100234.47;;;7.78;100.00
54600;BME280;40500;51.084;16.958;2023-02-18T10:10:23;100231.86;;;7.77;100.00
54600;BME280;40500;51.084;16.958;2023-02-18T10:12:57;100235.36;;;7.74;100.00
54600;BME280;40500;51.084;16.958;2023-02-18T10:15:29;100231.38;;;7.71;100.00
54600;BME280;40500;51.084;16.958;2023-02-18T10:18:00;100222.67;;;7.70;100.00
54600;BME280;40500;51.084;16.958;2023-02-18T10:20:32;100221.16;;;7.60;100.00
54600;BME280;40500;51.084;16.958;2023-02-18T10:23:04;100213.02;;;7.53;100.00
54600;BME280;40500;51.084;16.958;2023-02-18T10:25:44;100208.54;;;7.47;100.00
54600;BME280;40500;51.084;16.958;2023-02-18T10:28:15;100202.44;;;7.47;100.00
54600;BME280;40500;51.084;16.958;2023-02-18T10:30:53;100203.17;;;7.41;100.00
54600;BME280;40500;51.084;16.958;2023-02-18T10:33:34;100198.35;;;7.32;100.00
54600;BME280;40500;51.084;16.958;2023-02-18T10:36:23;100189.34;;;7.24;100.00
54600;BME280;40500;51.084;16.958;2023-02-18T10:39:06;100186.62;;;7.12;100.00
54600;BME280;40500;51.084;16.958;2023-02-18T10:41:48;100177.41;;;7.10;100.00
54600;BME280;40500;51.084;16.958;2023-02-18T10:44:31;100170.41;;;7.15;100.00
54600;BME280;40500;51.084;16.958;2023-02-18T10:47:15;100164.14;;;7.15;100.00
54600;BME280;40500;51.084;16.958;2023-02-18T10:49:59;100156.84;;;7.14;100.00
54600;BME280;40500;51.084;16.958;2023-02-18T10:52:35;100156.15;;;7.12;100.00
54600;BME280;40500;51.084;16.958;2023-02-18T10:55:08;100146.75;;;7.09;100.00
54600;BME280;40500;51.084;16.958;2023-02-18T10:57:48;100140.34;;;7.05;100.00
54600;BME280;40500;51.084;16.958;2023-02-18T11:00:21;100130.98;;;6.99;100.00
54600;BME280;40500;51.084;16.958;2023-02-18T11:03:14;100128.56;;;6.94;100.00
54600;BME280;40500;51.084;16.958;2023-02-18T11:05:47;100119.70;;;6.92;100.00
54600;BME280;40500;51.084;16.958;2023-02-18T11:08:21;100112.05;;;6.93;100.00
54600;BME280;40500;51.084;16.958;2023-02-18T11:10:53;100104.36;;;6.95;100.00
54600;BME280;40500;51.084;16.958;2023-02-18T11:13:29;100099.11;;;7.00;100.00
54600;BME280;40500;51.084;16.958;2023-02-18T11:16:04;100096.27;;;7.07;100.00
54600;BME280;40500;51.084;16.958;2023-02-18T11:18:39;100092.23;;;7.13;100.00
54600;BME280;40500;51.084;16.958;2023-02-18T11:21:23;100086.98;;;7.17;100.00
54600;BME280;40500;51.084;16.958;2023-02-18T11:23:56;100080.04;;;7.14;100.00
54600;BME280;40500;51.084;16.958;2023-02-18T11:26:31;100075.19;;;7.10;100.00
54600;BME280;40500;51.084;16.958;2023-02-18T11:29:06;100068.58;;;7.08;100.00
54600;BME280;40500;51.084;16.958;2023-02-18T11:31:43;100061.42;;;7.11;100.00
54600;BME280;40500;51.084;16.958;2023-02-18T11:34:17;100051.65;;;7.15;100.00
54600;BME280;40500;51.084;16.958;2023-02-18T11:36:50;100045.05;;;7.13;100.00
54600;BME280;40500;51.084;16.958;2023-02-18T11:39:22;100037.73;;;7.16;100.00
54600;BME280;40500;51.084;16.958;2023-02-18T11:41:58;100028.66;;;7.17;100.00
54600;BME280;40500;51.084;16.958;2023-02-18T11:44:32;100017.81;;;7.21;100.00
54600;BME280;40500;51.084;16.958;2023-02-18T11:47:05;100006.27;;;7.28;100.00
54600;BME280;40500;51.084;16.958;2023-02-18T11:50:09;99999.60;;;7.34;100.00
54600;BME280;40500;51.084;16.958;2023-02-18T11:52:44;99988.22;;;7.41;100.00
54600;BME280;40500;51.084;16.958;2023-02-18T11:55:20;99979.87;;;7.39;100.00
54600;BME280;40500;51.084;16.958;2023-02-18T11:57:55;99978.34;;;7.34;100.00
54600;BME280;40500;51.084;16.958;2023-02-18T12:00:38;99975.42;;;7.30;100.00
54600;BME280;40500;51.084;16.958;2023-02-18T12:03:17;99974.56;;;7.29;100.00
54600;BME280;40500;51.084;16.958;2023-02-18T12:05:52;99965.01;;;7.27;100.00
54600;BME280;40500;51.084;16.958;2023-02-18T12:08:26;99958.08;;;7.23;100.00
54600;BME280;40500;51.084;16.958;2023-02-18T12:11:03;99951.63;;;7.22;100.00
54600;BME280;40500;51.084;16.958;2023-02-18T12:13:49;99940.17;;;7.19;100.00
54600;BME280;40500;51.084;16.958;2023-02-18T12:16:27;99935.01;;;7.13;100.00
54600;BME280;40500;51.084;16.958;2023-02-18T12:19:12;99924.44;;;7.07;100.00
54600;BME280;40500;51.084;16.958;2023-02-18T12:21:55;99914.40;;;7.00;100.00
54600;BME280;40500;51.084;16.958;2023-02-18T12:24:39;99914.11;;;6.95;100.00
54600;BME280;40500;51.084;16.958;2023-02-18T12:27:18;99908.42;;;6.89;100.00
54600;BME280;40500;51.084;16.958;2023-02-18T12:30:12;99902.38;;;6.84;100.00
54600;BME280;40500;51.084;16.958;2023-02-18T12:32:56;99899.80;;;6.80;100.00
54600;BME280;40500;51.084;16.958;2023-02-18T12:35:42;99896.50;;;6.79;100.00
54600;BME280;40500;51.084;16.958;2023-02-18T12:38:33;99883.16;;;6.72;100.00
54600;BME280;40500;51.084;16.958;2023-02-18T12:41:22;99867.87;;;6.69;100.00
54600;BME280;40500;51.084;16.958;2023-02-18T12:44:05;99868.20;;;6.70;100.00
54600;BME280;40500;51.084;16.958;2023-02-18T12:46:56;99854.83;;;6.69;100.00
54600;BME280;40500;51.084;16.958;2023-02-18T12:49:46;99857.63;;;6.68;100.00
54600;BME280;40500;51.084;16.958;2023-02-18T12:52:32;99836.56;;;6.68;100.00
54600;BME280;40500;51.084;16.958;2023-02-18T12:55:26;99824.26;;;6.63;100.00
54600;BME280;40500;51.084;16.958;2023-02-18T12:58:07;99824.83;;;6.58;100.00
54600;BME280;40500;51.084;16.958;2023-02-18T13:00:58;99811.63;;;6.56;100.00
54600;BME280;40500;51.084;16.958;2023-02-18T13:03:49;99792.98;;;6.59;100.00
54600;BME280;40500;51.084;16.958;2023-02-18T13:06:36;99784.12;;;6.57;100.00
54600;BME280;40500;51.084;16.958;2023-02-18T13:09:14;99801.92;;;6.51;100.00
54600;BME280;40500;51.084;16.958;2023-02-18T13:11:51;99783.15;;;6.50;100.00
54600;BME280;40500;51.084;16.958;2023-02-18T13:14:28;99762.60;;;6.52;100.00
54600;BME280;40500;51.084;16.958;2023-02-18T13:17:02;99755.64;;;6.54;100.00
54600;BME280;40500;51.084;16.958;2023-02-18T13:19:42;99750.59;;;6.54;100.00
54600;BME280;40500;51.084;16.958;2023-02-18T13:22:15;99747.29;;;6.53;100.00
54600;BME280;40500;51.084;16.958;2023-02-18T13:24:48;99737.73;;;6.52;100.00